createdAt,value
2022-12-17T00:01:18.999Z,51.7
2022-12-17T00:06:37.449Z,52.4
2022-12-17T00:11:56.794Z,51.8
2022-12-17T00:17:15.066Z,51.9
2022-12-17T00:22:33.558Z,51.9
2022-12-17T00:27:51.489Z,52.7
2022-12-17T00:33:10.809Z,51.8
2022-12-17T00:38:29.347Z,52.6
2022-12-17T00:43:48.116Z,52
2022-12-17T00:49:06.377Z,51.8
2022-12-17T00:54:24.841Z,52
2022-12-17T00:59:43.608Z,52.6
2022-12-17T01:05:02.444Z,52.8
2022-12-17T01:10:20.641Z,52.7
2022-12-17T01:15:39.120Z,53
2022-12-17T01:20:57.663Z,52.9
2022-12-17T01:26:16.115Z,53.2
2022-12-17T01:31:36.052Z,52
2022-12-17T01:36:54.815Z,52.8
2022-12-17T01:42:13.566Z,52.1
2022-12-17T01:47:32.067Z,52.2
2022-12-17T01:52:50.634Z,52.3
2022-12-17T01:58:09.210Z,53
2022-12-17T02:03:35.126Z,52.6
2022-12-17T02:08:53.828Z,53.2
2022-12-17T02:14:12.313Z,52.5
2022-12-17T02:19:30.782Z,53.1
2022-12-17T02:24:49.325Z,52.3
2022-12-17T02:30:07.772Z,52.4
2022-12-17T02:35:26.542Z,53.1
2022-12-17T02:40:45.175Z,52.5
2022-12-17T02:46:04.066Z,53.2
2022-12-17T02:51:22.572Z,53.2
2022-12-17T02:56:40.821Z,53.2
2022-12-17T03:01:59.901Z,53.4
2022-12-17T03:07:18.474Z,52.4
2022-12-17T03:12:37.011Z,53.2
2022-12-17T03:17:55.491Z,52.7
2022-12-17T03:23:13.984Z,52.6
2022-12-17T03:28:32.511Z,53.6
2022-12-17T03:33:50.975Z,52.7
2022-12-17T03:39:09.479Z,53.3
2022-12-17T03:44:27.993Z,53.1
2022-12-17T03:49:46.729Z,52.4
2022-12-17T03:55:05.493Z,53
2022-12-17T04:00:24.323Z,52.6
2022-12-17T04:05:43.061Z,53.1
2022-12-17T04:11:01.556Z,53.2
2022-12-17T04:16:20.372Z,52.8
2022-12-17T04:21:38.857Z,53.3
2022-12-17T04:26:57.334Z,52.2
2022-12-17T04:32:15.628Z,53.2
2022-12-17T04:37:34.369Z,52.5
2022-12-17T04:42:52.578Z,53.1
2022-12-17T04:48:10.543Z,53.3
2022-12-17T04:53:29.291Z,53.1
2022-12-17T04:58:47.775Z,52.4
2022-12-17T05:04:06.336Z,52.9
2022-12-17T05:09:24.521Z,52.2
2022-12-17T05:14:42.756Z,52.7
2022-12-17T05:20:00.985Z,53
2022-12-17T05:25:18.897Z,52.8
2022-12-17T05:30:37.411Z,53
2022-12-17T05:35:56.032Z,52.5
2022-12-17T05:41:14.780Z,53.6
2022-12-17T05:46:33.416Z,53.3
2022-12-17T05:51:51.440Z,52.8
2022-12-17T05:57:09.621Z,52.5
2022-12-17T06:02:28.094Z,52.4
2022-12-17T06:07:46.161Z,52.7
2022-12-17T06:13:04.612Z,53
2022-12-17T06:18:22.815Z,53.6
2022-12-17T06:23:40.980Z,53.4
2022-12-17T06:28:59.482Z,53.3
2022-12-17T06:34:17.968Z,53.5
2022-12-17T06:39:37.303Z,53.4
2022-12-17T06:44:55.793Z,52.7
2022-12-17T06:50:15.192Z,53.3
2022-12-17T06:55:33.457Z,52.7
2022-12-17T07:00:52.156Z,52.4
2022-12-17T07:06:10.692Z,52.4
2022-12-17T07:11:29.091Z,52.6
2022-12-17T07:16:48.381Z,53.1
2022-12-17T07:22:07.634Z,52.2
2022-12-17T07:27:26.499Z,52.1
2022-12-17T07:32:45.240Z,53.2
2022-12-17T07:38:03.721Z,53.1
2022-12-17T07:43:22.229Z,53.1
2022-12-17T07:48:40.984Z,52.8
2022-12-17T07:53:59.142Z,53
2022-12-17T07:59:17.981Z,52.7
2022-12-17T08:04:36.688Z,52
2022-12-17T08:09:55.447Z,51.9
2022-12-17T08:15:13.967Z,52.5
2022-12-17T08:20:32.150Z,52.3
2022-12-17T08:25:50.895Z,52.6
2022-12-17T08:31:09.715Z,52.4
2022-12-17T08:36:27.918Z,52.8
2022-12-17T08:41:58.400Z,52.2
2022-12-17T08:47:19.184Z,52.1
2022-12-17T08:52:37.639Z,52.2
2022-12-17T08:57:55.526Z,52.8
2022-12-17T09:03:14.390Z,51.8
2022-12-17T09:08:32.848Z,52.7
2022-12-17T09:13:50.792Z,52.6
2022-12-17T09:19:09.217Z,52.5
2022-12-17T09:24:27.177Z,51.9
2022-12-17T09:29:45.655Z,51.7
2022-12-17T09:35:04.338Z,51.8
2022-12-17T09:40:23.085Z,52.5
2022-12-17T09:45:41.300Z,52.6
2022-12-17T09:50:59.546Z,51.9
2022-12-17T09:56:18.004Z,52.5
2022-12-17T10:01:21.035Z,52.5
2022-12-17T10:06:39.896Z,51.7
2022-12-17T10:11:58.337Z,52.3
2022-12-17T10:17:17.097Z,52
2022-12-17T10:22:21.572Z,51.6
2022-12-17T10:27:40.023Z,51.4
2022-12-17T10:32:58.591Z,51.4
2022-12-17T10:38:16.956Z,51.4
2022-12-17T10:43:36.827Z,51.8
2022-12-17T10:48:55.240Z,51.6
2022-12-17T10:54:14.024Z,53
2022-12-17T10:59:32.215Z,53.2
2022-12-17T11:04:50.695Z,52.8
2022-12-17T11:10:10.985Z,53.5
2022-12-17T11:15:29.453Z,53.3
2022-12-17T11:20:47.649Z,53
2022-12-17T11:25:50.563Z,53.1
2022-12-17T11:31:09.098Z,51.6
2022-12-17T11:36:39.416Z,52.2
2022-12-17T11:41:57.464Z,50.7
2022-12-17T11:47:00.341Z,50.9
2022-12-17T11:52:19.107Z,50.9
2022-12-17T11:57:37.333Z,50.1
2022-12-17T12:02:56.824Z,50.4
2022-12-17T12:08:15.112Z,50.8
2022-12-17T12:13:33.931Z,50.6
2022-12-17T12:18:51.830Z,50.9
2022-12-17T12:24:10.018Z,50.1
2022-12-17T12:29:28.531Z,50.4
2022-12-17T12:34:46.729Z,50
2022-12-17T12:40:05.195Z,49.6
2022-12-17T12:45:23.890Z,49.4
2022-12-17T12:50:42.364Z,49.9
2022-12-17T12:56:00.841Z,49.9
2022-12-17T13:01:20.230Z,50.4
2022-12-17T13:06:39.102Z,49.8
2022-12-17T13:11:57.902Z,50.1
2022-12-17T13:17:16.384Z,50.2
2022-12-17T13:22:35.126Z,51.2
2022-12-17T13:27:53.587Z,51.2
2022-12-17T13:33:12.392Z,51.3
2022-12-17T13:38:30.563Z,51.3
2022-12-17T13:43:49.049Z,50.6
2022-12-17T13:49:07.590Z,50.7
2022-12-17T13:54:26.320Z,51.6
2022-12-17T13:59:44.780Z,51.5
2022-12-17T14:05:08.609Z,51.3
2022-12-17T14:10:27.068Z,52
2022-12-17T14:15:45.548Z,51.3
2022-12-17T14:21:04.066Z,52.2
2022-12-17T14:26:22.514Z,52.2
2022-12-17T14:31:41.082Z,51.7
2022-12-17T14:36:59.281Z,52.1
2022-12-17T14:42:17.737Z,52.5
2022-12-17T14:47:36.502Z,51.6
2022-12-17T14:52:57.931Z,52.1
2022-12-17T14:58:16.202Z,52.4
2022-12-17T15:03:34.734Z,52
2022-12-17T15:08:53.532Z,52.6
2022-12-17T15:14:11.996Z,51.8
2022-12-17T15:19:30.761Z,52.4
2022-12-17T15:24:49.294Z,52.1
2022-12-17T15:30:07.474Z,52.5
2022-12-17T15:35:25.655Z,52.5
2022-12-17T15:40:43.610Z,52.3
2022-12-17T15:46:02.067Z,51.8
2022-12-17T15:51:20.475Z,52.3
2022-12-17T15:56:38.751Z,52.2
2022-12-17T16:01:57.393Z,52.2
2022-12-17T16:07:15.648Z,51.7
2022-12-17T16:12:34.166Z,52.3
2022-12-17T16:17:53.362Z,51.7
2022-12-17T16:23:13.104Z,52.5
2022-12-17T16:28:31.130Z,51.7
2022-12-17T16:33:49.304Z,52.3
2022-12-17T16:39:07.819Z,52.4
2022-12-17T16:44:26.052Z,51.8
2022-12-17T16:49:43.946Z,52.2
2022-12-17T16:55:02.443Z,52.4
2022-12-17T17:00:21.211Z,51.6
2022-12-17T17:05:39.981Z,51.4
2022-12-17T17:10:58.729Z,52.4
2022-12-17T17:16:17.487Z,52.3
2022-12-17T17:21:35.994Z,51.6
2022-12-17T17:26:54.779Z,51.6
2022-12-17T17:32:14.614Z,51.9
2022-12-17T17:37:33.137Z,51.8
2022-12-17T17:42:35.732Z,51.4
2022-12-17T17:47:53.969Z,52.2
2022-12-17T17:53:12.440Z,52.2
2022-12-17T17:58:31.214Z,51.4
2022-12-17T18:03:49.822Z,51.3
2022-12-17T18:09:07.806Z,52.2
2022-12-17T18:14:26.566Z,51.4
2022-12-17T18:19:45.089Z,52
2022-12-17T18:25:03.558Z,51.1
2022-12-17T18:30:22.046Z,51.3
2022-12-17T18:35:40.262Z,50.8
2022-12-17T18:40:58.709Z,50.8
2022-12-17T18:46:24.227Z,51
2022-12-17T18:51:42.989Z,52
2022-12-17T18:57:03.118Z,50.9
2022-12-17T19:02:21.637Z,51.3
2022-12-17T19:07:40.223Z,50.6
2022-12-17T19:12:58.962Z,51
2022-12-17T19:18:17.167Z,51
2022-12-17T19:23:35.439Z,50.7
2022-12-17T19:28:53.879Z,50.5
2022-12-17T19:34:12.391Z,51.8
2022-12-17T19:39:30.902Z,50.9
2022-12-17T19:44:49.652Z,51.6
2022-12-17T19:50:07.852Z,51.8
2022-12-17T19:55:26.141Z,51.1
2022-12-17T20:00:45.045Z,51
2022-12-17T20:06:03.658Z,51.2
2022-12-17T20:11:21.868Z,52.1
2022-12-17T20:16:40.041Z,51.2
2022-12-17T20:21:58.626Z,51.3
2022-12-17T20:27:16.838Z,52.1
2022-12-17T20:32:35.311Z,51.1
2022-12-17T20:37:53.556Z,52.3
2022-12-17T20:43:12.226Z,51.5
2022-12-17T20:48:32.205Z,51.5
2022-12-17T20:53:50.450Z,51.9
2022-12-17T20:59:08.401Z,52.4
2022-12-17T21:04:26.849Z,52.4
2022-12-17T21:09:45.623Z,51.8
2022-12-17T21:15:04.136Z,52.1
2022-12-17T21:20:23.526Z,51.6
2022-12-17T21:25:42.481Z,52
2022-12-17T21:31:01.003Z,52
2022-12-17T21:36:19.206Z,51.6
2022-12-17T21:41:45.179Z,51.7
2022-12-17T21:47:03.700Z,50.8
2022-12-17T21:52:22.146Z,51.2
2022-12-17T21:57:43.104Z,51.7
2022-12-17T22:03:01.534Z,52.4
2022-12-17T22:08:20.186Z,52.4
2022-12-17T22:13:38.834Z,52.2
2022-12-17T22:18:57.756Z,52.8
2022-12-17T22:24:16.243Z,52.4
2022-12-17T22:29:34.541Z,52.1
2022-12-17T22:44:50.573Z,52.1
2022-12-17T22:50:11.480Z,52.2
2022-12-17T22:55:31.357Z,52.6
2022-12-17T23:00:34.591Z,53
2022-12-17T23:05:52.455Z,52.3
2022-12-17T23:11:11.239Z,52.2
2022-12-17T23:16:30.550Z,52.3
2022-12-17T23:21:49.031Z,53.2
2022-12-17T23:27:07.815Z,52
2022-12-17T23:32:26.337Z,53.1
2022-12-17T23:37:44.337Z,52.2
2022-12-17T23:43:02.854Z,53
2022-12-17T23:48:21.077Z,52.7
2022-12-17T23:53:40.654Z,52.5
2022-12-17T23:58:59.108Z,52.6
